»·PEaware :: N101JP KSNA-KCRQ

N101JP :: KSNA-KCRQ

FLIGHT INFORMATION

Flight Status: Arrived
Operator: Privately registered:
United States
More flights under this callsign
Pilot: James T. (870)
Aircraft: PILATUS PC-12 EAGLE
(PC12)
More flights by this aircraft type
Origin: KSNA John Wayne-Orange Co
United States
Destination: KCRQ McClellan-Palomar
United States
More flights between these airports :: More routes between these airports
Route: V25 PACIF V208 OCN
File this flight plan on PilotEdge
Remarks:
Altitude:
(Current/Filed)
70ft
Speed:
(Current/Filed)
200kts
Departed: 08-Jan-15 06:04 PM
Arrived: 08-Jan-15 06:32 PM
Distance/Time
Traveled:
44nm/0:27
Distance/Time
To Go:
Arrived

Flight Plot

Page will automatically refresh every two minutes.


Map Options




Map Legend


Flown Route
Filed Route
Departure Airport
Arrival Airport
Navaid (VOR, NDB)
Fix

Horizontal Profiles

Position Reports

Time Latitude Longitude Heading Altitude Ground
Speed
08-Jan-15 17:36 33.671541 -117.867698 282 51ft 0kts
08-Jan-15 17:37 33.671541 -117.867698 282 51ft 0kts
08-Jan-15 17:38 33.671541 -117.867698 282 51ft 0kts
08-Jan-15 17:39 33.671541 -117.867698 282 51ft 0kts
08-Jan-15 17:40 33.671541 -117.867698 282 51ft 0kts
08-Jan-15 17:41 33.671541 -117.867698 282 51ft 0kts
08-Jan-15 17:42 33.671541 -117.867698 282 51ft 0kts
08-Jan-15 17:43 33.671541 -117.867698 282 51ft 0kts
08-Jan-15 17:44 33.671541 -117.867698 282 51ft 0kts
08-Jan-15 17:45 33.671541 -117.867698 282 51ft 0kts
08-Jan-15 17:46 33.671541 -117.867698 282 51ft 0kts
08-Jan-15 17:47 33.671541 -117.867698 282 51ft 0kts
08-Jan-15 17:48 33.671541 -117.867698 282 51ft 0kts
08-Jan-15 17:49 33.671541 -117.867698 282 51ft 0kts
08-Jan-15 17:50 33.671541 -117.867698 282 51ft 0kts
08-Jan-15 17:51 33.671541 -117.867698 282 51ft 0kts
08-Jan-15 17:52 33.671541 -117.867698 282 51ft 0kts
08-Jan-15 17:53 33.671641 -117.867767 11 51ft 2kts
08-Jan-15 17:54 33.674353 -117.866360 28 48ft 15kts
08-Jan-15 17:55 33.678943 -117.863507 26 42ft 14kts
08-Jan-15 17:56 33.680449 -117.862782 325 42ft 3kts
08-Jan-15 17:57 33.680654 -117.863050 294 42ft 0kts
08-Jan-15 17:58 33.680794 -117.863710 233 42ft 6kts
08-Jan-15 17:59 33.680611 -117.863863 209 42ft 12kts
08-Jan-15 18:00 33.651888 -117.875706 189 955ft 151kts
08-Jan-15 18:01 33.608729 -117.882372 188 2678ft 160kts
08-Jan-15 18:02 33.564156 -117.889088 188 4472ft 163kts
08-Jan-15 18:03 33.519159 -117.895649 188 6240ft 165kts
08-Jan-15 18:04 33.471236 -117.902568 188 7010ft 191kts
08-Jan-15 18:05 33.421989 -117.885412 138 7001ft 216kts
08-Jan-15 18:06 33.375723 -117.838298 141 6990ft 219kts
08-Jan-15 18:07 33.329062 -117.791344 141 6991ft 219kts
08-Jan-15 18:08 33.286833 -117.739953 109 7020ft 220kts
08-Jan-15 18:09 33.275139 -117.668674 100 6996ft 217kts
08-Jan-15 18:10 33.265803 -117.596137 98 7000ft 221kts
08-Jan-15 18:11 33.256864 -117.523159 101 7000ft 222kts
08-Jan-15 18:12 33.245508 -117.447759 101 5760ft 237kts
08-Jan-15 18:13 33.233834 -117.369919 101 4274ft 237kts
08-Jan-15 18:14 33.223267 -117.298436 100 3984ft 198kts
08-Jan-15 18:15 33.214366 -117.236839 100 3995ft 178kts
08-Jan-15 18:16 33.211512 -117.184389 73 3993ft 142kts
08-Jan-15 18:17 33.222923 -117.140873 73 3982ft 134kts
08-Jan-15 18:18 33.234168 -117.098136 73 3984ft 134kts
08-Jan-15 18:19 33.245337 -117.055180 73 3999ft 136kts
08-Jan-15 18:20 33.221699 -117.035654 184 4013ft 129kts
08-Jan-15 18:21 33.190581 -117.053007 221 4007ft 128kts
08-Jan-15 18:22 33.165488 -117.077863 218 3963ft 133kts
08-Jan-15 18:23 33.152668 -117.128296 257 2610ft 143kts
08-Jan-15 18:24 33.146019 -117.168763 251 2589ft 107kts
08-Jan-15 18:25 33.140771 -117.204232 255 1779ft 119kts
08-Jan-15 18:26 33.134578 -117.241398 257 923ft 108kts
08-Jan-15 18:27 33.129087 -117.275180 257 329ft 94kts
08-Jan-15 18:28 33.127620 -117.283661 263 315ft 17kts
08-Jan-15 18:29 33.126336 -117.286904 90 298ft 10kts
08-Jan-15 18:30 33.126926 -117.283071 78 314ft 16kts
08-Jan-15 18:31 33.126870 -117.278767 347 311ft 0kts
08-Jan-15 18:32 33.126870 -117.278767 347 311ft 0kts
08-Jan-15 18:33 33.126870 -117.278767 347 311ft 0kts
08-Jan-15 18:34 33.126870 -117.278767 347 311ft 0kts
08-Jan-15 18:35 33.126870 -117.278767 347 311ft 0kts
08-Jan-15 18:36 33.126870 -117.278767 347 311ft 0kts
08-Jan-15 18:37 33.126870 -117.278767 347 311ft 0kts
08-Jan-15 18:38 33.126870 -117.278767 347 311ft 0kts
08-Jan-15 18:39 33.126870 -117.278767 347 311ft 0kts
08-Jan-15 18:40 33.126870 -117.278767 347 311ft 0kts
08-Jan-15 18:41 33.126870 -117.278767 347 311ft 0kts
08-Jan-15 18:42 33.126870 -117.278767 347 311ft 0kts

Navigation Log

Ident Type
Flight plan parsing failed, navigation log unavailable